Time;durP1;ratioP1;P1;durP2;ratioP2;P2;SDS_P1;SDS_P2;PMS_P1;PMS_P2;Temp;Humidity;BMP_temperature;BMP_pressure;BME280_temperature;BME280_humidity;BME280_pressure;Samples;Min_cycle;Max_cycle;Signal;HPM_P1;HPM_P2
2024/02/14 00:00:34;;;;;;;4.30;2.30;;;10.30;99.90;;;;;;2073206;28;20345;-71
2024/02/14 00:01:36;;;;;;;3.30;2.05;;;10.30;99.90;;;;;;2075322;28;20026;-71
2024/02/14 00:02:37;;;;;;;5.40;2.60;;;10.30;99.90;;;;;;2076699;28;20028;-70
2024/02/14 00:03:37;;;;;;;4.95;3.33;;;10.30;99.90;;;;;;2074578;28;20064;-71
2024/02/14 00:04:39;;;;;;;4.38;2.67;;;10.30;99.90;;;;;;2078229;28;20056;-70
2024/02/14 00:05:40;;;;;;;6.68;2.50;;;10.30;99.90;;;;;;2074729;28;20446;-71
2024/02/14 00:06:41;;;;;;;5.40;2.35;;;10.30;99.90;;;;;;2075450;28;20029;-71
2024/02/14 00:07:42;;;;;;;5.35;2.97;;;10.30;99.90;;;;;;2077011;28;20021;-71
2024/02/14 00:08:42;;;;;;;5.75;2.40;;;10.40;99.90;;;;;;2073662;28;20029;-71
2024/02/14 00:09:43;;;;;;;7.20;2.88;;;10.30;99.90;;;;;;2075789;28;20105;-71
2024/02/14 00:10:44;;;;;;;6.18;2.42;;;10.30;99.90;;;;;;2075251;28;20025;-71
2024/02/14 00:11:45;;;;;;;8.07;2.60;;;10.40;99.90;;;;;;2075486;28;20481;-72
2024/02/14 00:12:46;;;;;;;6.70;2.40;;;10.30;99.90;;;;;;2075514;28;20402;-71
2024/02/14 00:13:47;;;;;;;5.90;2.63;;;10.30;99.90;;;;;;2075572;28;20025;-71
2024/02/14 00:14:48;;;;;;;5.63;2.63;;;10.30;99.90;;;;;;2076582;28;20034;-71
2024/02/14 00:15:49;;;;;;;5.32;2.38;;;10.30;99.90;;;;;;2076158;28;20057;-70
2024/02/14 00:16:50;;;;;;;3.35;2.28;;;10.30;99.90;;;;;;2076276;28;20385;-71
2024/02/14 00:17:51;;;;;;;6.70;2.70;;;10.30;99.90;;;;;;2075890;28;20116;-72
2024/02/14 00:18:52;;;;;;;4.85;2.08;;;10.30;99.90;;;;;;2075801;28;20067;-69
2024/02/14 00:19:52;;;;;;;5.82;2.28;;;10.30;99.90;;;;;;2075074;28;20042;-71
2024/02/14 00:20:53;;;;;;;6.07;2.30;;;10.40;99.90;;;;;;2075357;28;20128;-71
2024/02/14 00:21:53;;;;;;;5.38;2.22;;;10.30;99.90;;;;;;2074393;28;20057;-71
2024/02/14 00:22:54;;;;;;;5.05;2.67;;;10.30;99.90;;;;;;2075969;28;20110;-70
2024/02/14 00:23:54;;;;;;;4.03;2.38;;;10.30;99.90;;;;;;2075682;28;20124;-71
2024/02/14 00:24:55;;;;;;;4.18;2.17;;;10.30;99.90;;;;;;2075481;28;20045;-71
2024/02/14 00:25:56;;;;;;;4.75;2.22;;;10.40;99.90;;;;;;2076447;28;20482;-71
2024/02/14 00:26:56;;;;;;;5.43;2.58;;;10.40;99.90;;;;;;2075695;28;20034;-72
2024/02/14 00:28:00;;;;;;;4.18;1.90;;;10.40;99.90;;;;;;2074029;28;20538;-71
2024/02/14 00:29:01;;;;;;;3.03;2.00;;;10.30;99.90;;;;;;2074086;28;20422;-71
2024/02/14 00:30:03;;;;;;;8.18;2.63;;;10.30;99.90;;;;;;2076457;28;20056;-71
2024/02/14 00:31:05;;;;;;;6.13;2.45;;;10.30;99.90;;;;;;2074725;28;20021;-72
2024/02/14 00:32:05;;;;;;;6.05;2.10;;;10.30;99.90;;;;;;2076347;28;20037;-71
2024/02/14 00:33:06;;;;;;;6.22;2.25;;;10.30;99.90;;;;;;2074440;28;20080;-70
2024/02/14 00:34:07;;;;;;;5.30;2.15;;;10.30;99.90;;;;;;2075583;28;20034;-71
2024/02/14 00:35:08;;;;;;;3.03;2.13;;;10.30;99.90;;;;;;2077870;28;20022;-71
2024/02/14 00:36:08;;;;;;;6.10;2.40;;;10.30;99.90;;;;;;2074871;28;20032;-70
2024/02/14 00:37:08;;;;;;;4.97;2.10;;;10.30;99.90;;;;;;2075001;28;20026;-71
2024/02/14 00:38:09;;;;;;;5.53;2.10;;;10.30;99.90;;;;;;2075027;28;20030;-71
2024/02/14 00:39:10;;;;;;;5.30;2.50;;;10.30;99.90;;;;;;2075123;28;20486;-71
2024/02/14 00:40:11;;;;;;;3.58;2.20;;;10.30;99.90;;;;;;2075324;28;20038;-71
2024/02/14 00:41:12;;;;;;;4.68;1.90;;;10.30;99.90;;;;;;2076108;28;20535;-71
2024/02/14 00:42:12;;;;;;;6.13;2.75;;;10.30;99.90;;;;;;2076734;28;20431;-71
2024/02/14 00:43:13;;;;;;;6.85;2.22;;;10.30;99.90;;;;;;2076698;28;20042;-71
2024/02/14 00:44:16;;;;;;;3.92;2.13;;;10.30;99.90;;;;;;2075759;28;20041;-70
2024/02/14 00:45:17;;;;;;;3.63;1.92;;;10.30;99.90;;;;;;2075297;28;20026;-71
2024/02/14 00:46:17;;;;;;;4.93;2.28;;;10.30;99.90;;;;;;2074485;28;20018;-71
2024/02/14 00:47:18;;;;;;;3.88;1.75;;;10.20;99.90;;;;;;2074704;28;20045;-71
2024/02/14 00:48:19;;;;;;;2.17;1.60;;;10.20;99.90;;;;;;2076397;28;20068;-70
2024/02/14 00:49:19;;;;;;;3.13;1.90;;;10.20;99.90;;;;;;2075340;28;20037;-70
2024/02/14 00:50:20;;;;;;;3.15;2.08;;;10.20;99.90;;;;;;2075538;28;20117;-71
2024/02/14 00:51:21;;;;;;;10.77;4.25;;;10.30;99.90;;;;;;2077824;28;20026;-71
2024/02/14 00:52:22;;;;;;;4.28;1.83;;;10.20;99.90;;;;;;2076602;28;20029;-69
2024/02/14 00:53:22;;;;;;;3.78;1.80;;;10.20;99.90;;;;;;2077482;28;20520;-71
2024/02/14 00:54:23;;;;;;;6.35;2.08;;;10.20;99.90;;;;;;2076005;28;20076;-70
2024/02/14 00:55:23;;;;;;;6.38;2.25;;;10.20;99.90;;;;;;2075772;28;20064;-71
2024/02/14 00:56:24;;;;;;;4.03;1.90;;;10.20;99.90;;;;;;2075953;28;20034;-70
2024/02/14 00:57:28;;;;;;;4.50;2.05;;;10.20;99.90;;;;;;2075710;28;20421;-71
2024/02/14 00:58:29;;;;;;;4.10;2.00;;;10.20;99.90;;;;;;2075189;28;20038;-71
2024/02/14 00:59:29;;;;;;;4.03;2.28;;;10.10;99.90;;;;;;2076325;28;20034;-71
2024/02/14 01:00:31;;;;;;;4.78;2.17;;;10.10;99.90;;;;;;2074649;28;20026;-72
2024/02/14 01:01:32;;;;;;;4.63;2.20;;;10.10;99.90;;;;;;2075783;28;20062;-71
2024/02/14 01:02:32;;;;;;;4.90;1.98;;;10.10;99.90;;;;;;2077167;28;20027;-71
2024/02/14 01:03:33;;;;;;;4.70;2.15;;;10.10;99.90;;;;;;2079050;28;20029;-71
2024/02/14 01:04:36;;;;;;;3.10;2.22;;;10.10;99.90;;;;;;2075585;28;20061;-71
2024/02/14 01:05:36;;;;;;;8.70;2.40;;;10.10;99.90;;;;;;2073754;28;20538;-70
2024/02/14 01:06:37;;;;;;;3.95;2.10;;;10.10;99.90;;;;;;2075867;28;20021;-71
2024/02/14 01:07:37;;;;;;;1.88;1.67;;;10.10;99.90;;;;;;2072383;28;20038;-71
2024/02/14 01:08:38;;;;;;;3.25;2.10;;;10.10;99.90;;;;;;2075218;28;20041;-70
2024/02/14 01:09:38;;;;;;;7.15;1.92;;;10.10;99.90;;;;;;2075946;28;20038;-70
2024/02/14 01:10:39;;;;;;;5.18;2.10;;;10.10;99.90;;;;;;2073646;28;20490;-71
2024/02/14 01:11:39;;;;;;;3.25;2.10;;;10.10;99.90;;;;;;2074376;28;20022;-71
2024/02/14 01:12:40;;;;;;;3.15;2.13;;;10.10;99.90;;;;;;2075687;28;20164;-71
2024/02/14 01:13:41;;;;;;;5.93;2.10;;;10.10;99.90;;;;;;2075484;28;20474;-71
2024/02/14 01:14:42;;;;;;;4.57;2.00;;;10.10;99.90;;;;;;2076056;28;20022;-71
2024/02/14 01:15:42;;;;;;;2.83;2.08;;;10.10;99.90;;;;;;2075158;28;20460;-69
2024/02/14 01:16:43;;;;;;;4.35;2.70;;;10.10;99.90;;;;;;2075685;28;20527;-71
2024/02/14 01:17:47;;;;;;;7.50;3.00;;;10.10;99.90;;;;;;2073642;28;20035;-71
2024/02/14 01:18:47;;;;;;;7.47;2.03;;;10.10;99.90;;;;;;2074791;28;20046;-70
2024/02/14 01:19:48;;;;;;;4.93;2.00;;;10.00;99.90;;;;;;2074213;28;20034;-71
2024/02/14 01:20:49;;;;;;;3.47;2.05;;;10.00;99.90;;;;;;2074445;28;20498;-71
2024/02/14 01:21:50;;;;;;;4.82;2.08;;;10.00;99.90;;;;;;2074263;28;20034;-71
2024/02/14 01:22:50;;;;;;;2.25;2.05;;;10.00;99.90;;;;;;2076116;28;20386;-71
2024/02/14 01:23:52;;;;;;;4.13;2.00;;;10.10;99.90;;;;;;2074858;28;20103;-72
2024/02/14 01:24:52;;;;;;;4.68;2.35;;;10.00;99.90;;;;;;2075706;28;20124;-66
2024/02/14 01:25:54;;;;;;;5.18;2.50;;;10.00;99.90;;;;;;2066554;28;20049;-66
2024/02/14 01:26:55;;;;;;;4.32;1.88;;;10.00;99.90;;;;;;2066614;28;20042;-66
2024/02/14 01:27:56;;;;;;;6.78;2.15;;;10.00;99.90;;;;;;2075590;28;20523;-67
2024/02/14 01:28:56;;;;;;;3.53;2.03;;;10.00;99.90;;;;;;2075267;28;20099;-66
2024/02/14 01:29:58;;;;;;;4.95;1.90;;;10.00;99.90;;;;;;2076061;28;20087;-66
2024/02/14 01:30:58;;;;;;;4.75;2.03;;;10.00;99.90;;;;;;2076098;28;20029;-66
2024/02/14 01:31:59;;;;;;;4.63;2.45;;;10.00;99.90;;;;;;2075140;28;20058;-66
2024/02/14 01:33:00;;;;;;;2.88;2.28;;;10.00;99.90;;;;;;2075279;28;20037;-67
2024/02/14 01:34:03;;;;;;;5.22;1.90;;;10.00;99.90;;;;;;2076220;28;20033;-67
2024/02/14 01:35:04;;;;;;;2.75;1.90;;;10.00;99.90;;;;;;2077655;28;20520;-66
2024/02/14 01:36:05;;;;;;;3.17;2.35;;;10.00;99.90;;;;;;2076693;28;20104;-66
2024/02/14 01:37:06;;;;;;;6.00;2.70;;;10.00;99.90;;;;;;2077813;28;20120;-66
2024/02/14 01:38:06;;;;;;;2.60;1.75;;;10.00;99.90;;;;;;2078090;28;20036;-67
2024/02/14 01:39:10;;;;;;;5.43;2.00;;;10.00;99.90;;;;;;2078219;28;20546;-66
2024/02/14 01:40:11;;;;;;;4.28;2.63;;;10.00;99.90;;;;;;2077044;28;20030;-66
2024/02/14 01:41:13;;;;;;;6.30;2.20;;;10.00;99.90;;;;;;2075041;28;20036;-66
2024/02/14 01:42:14;;;;;;;2.90;1.80;;;10.00;99.90;;;;;;2075492;28;20026;-66
2024/02/14 01:43:15;;;;;;;4.60;1.58;;;10.00;99.90;;;;;;2076770;28;20451;-66
2024/02/14 01:44:18;;;;;;;4.57;2.03;;;10.00;99.90;;;;;;2076876;28;20036;-66
2024/02/14 01:45:19;;;;;;;4.82;2.25;;;10.00;99.90;;;;;;2076312;28;20025;-66
2024/02/14 01:46:20;;;;;;;6.53;1.90;;;9.90;99.90;;;;;;2074698;28;20045;-66
2024/02/14 01:47:21;;;;;;;3.70;2.00;;;10.00;99.90;;;;;;2076512;28;20041;-66
2024/02/14 01:48:21;;;;;;;3.55;2.10;;;9.90;99.90;;;;;;2075656;28;20684;-66
2024/02/14 01:49:22;;;;;;;3.58;1.80;;;9.90;99.90;;;;;;2077705;28;20146;-66
2024/02/14 01:50:28;;;;;;;3.55;2.15;;;9.90;99.90;;;;;;2076848;28;20389;-67
2024/02/14 01:51:31;;;;;;;2.17;1.88;;;9.90;99.90;;;;;;2077005;28;20025;-67
2024/02/14 01:52:32;;;;;;;2.97;2.05;;;9.90;99.90;;;;;;2076056;28;20022;-66
2024/02/14 01:53:33;;;;;;;2.88;2.05;;;9.90;99.90;;;;;;2078010;28;20017;-66
2024/02/14 01:54:35;;;;;;;3.28;1.90;;;9.90;99.90;;;;;;2077150;28;20076;-66
2024/02/14 01:55:35;;;;;;;3.33;2.38;;;9.90;99.90;;;;;;2079869;28;20022;-67
2024/02/14 01:56:36;;;;;;;3.38;2.20;;;10.00;99.90;;;;;;2078913;28;20036;-67
2024/02/14 01:57:39;;;;;;;3.60;1.90;;;10.00;99.90;;;;;;2074624;28;20356;-66
2024/02/14 01:58:39;;;;;;;3.67;2.28;;;10.00;99.90;;;;;;2075660;28;20021;-67
2024/02/14 01:59:40;;;;;;;5.28;2.47;;;10.00;99.90;;;;;;2076363;28;20072;-66
2024/02/14 02:00:42;;;;;;;3.05;1.80;;;10.00;99.90;;;;;;2069569;28;20026;-66
2024/02/14 02:01:43;;;;;;;2.42;1.73;;;10.00;99.90;;;;;;2072830;28;20026;-66
2024/02/14 02:02:44;;;;;;;4.13;1.90;;;10.00;99.90;;;;;;2077494;28;20063;-66
2024/02/14 02:03:45;;;;;;;4.10;2.05;;;10.00;99.90;;;;;;2076256;28;20056;-66
2024/02/14 02:04:46;;;;;;;2.10;1.90;;;10.00;99.90;;;;;;2076283;28;20033;-66
2024/02/14 02:05:47;;;;;;;3.63;1.70;;;10.00;99.90;;;;;;2077136;28;21083;-67
2024/02/14 02:06:47;;;;;;;2.85;1.60;;;9.90;99.90;;;;;;2078591;28;20417;-66
2024/02/14 02:07:48;;;;;;;5.68;2.00;;;10.00;99.90;;;;;;2076828;28;20120;-66
2024/02/14 02:08:49;;;;;;;2.05;1.65;;;9.90;99.90;;;;;;2075975;28;20735;-66
2024/02/14 02:09:50;;;;;;;3.65;1.70;;;9.90;99.90;;;;;;2079397;28;20029;-67
2024/02/14 02:10:50;;;;;;;2.53;2.00;;;10.00;99.90;;;;;;2074720;28;20584;-66
2024/02/14 02:12:00;;;;;;;3.08;2.10;;;9.90;99.90;;;;;;2077738;28;20112;-66
2024/02/14 02:13:01;;;;;;;3.28;1.77;;;9.90;99.90;;;;;;2078831;28;20029;-66
2024/02/14 02:14:03;;;;;;;3.72;1.80;;;9.90;99.90;;;;;;2075407;28;20145;-66
2024/02/14 02:15:05;;;;;;;4.80;1.85;;;9.90;99.90;;;;;;2075022;28;20033;-66
2024/02/14 02:16:06;;;;;;;5.40;2.00;;;10.00;99.90;;;;;;2075870;28;20509;-66
2024/02/14 02:17:09;;;;;;;6.03;2.10;;;10.00;99.90;;;;;;2075346;28;20442;-67
2024/02/14 02:18:10;;;;;;;1.80;1.65;;;9.90;99.90;;;;;;2078175;28;20033;-66
2024/02/14 02:19:10;;;;;;;2.60;1.80;;;9.90;99.90;;;;;;2076632;28;20034;-66
2024/02/14 02:20:11;;;;;;;3.42;1.80;;;10.00;99.90;;;;;;2076800;28;20049;-65
2024/02/14 02:21:12;;;;;;;3.65;2.10;;;9.90;99.90;;;;;;2077755;28;20036;-66
2024/02/14 02:22:13;;;;;;;2.42;1.88;;;10.00;99.90;;;;;;2076410;28;20117;-66
2024/02/14 02:23:16;;;;;;;2.10;1.55;;;10.00;99.90;;;;;;2075455;28;20037;-66
2024/02/14 02:24:17;;;;;;;3.33;2.38;;;10.00;99.90;;;;;;2076692;28;20878;-66
2024/02/14 02:25:23;;;;;;;3.90;2.03;;;10.00;99.90;;;;;;2076647;28;20371;-66
2024/02/14 02:26:25;;;;;;;3.65;1.98;;;10.00;99.90;;;;;;2076073;28;20061;-66
2024/02/14 02:27:25;;;;;;;2.65;2.00;;;10.00;99.90;;;;;;2077751;28;20021;-65
2024/02/14 02:28:26;;;;;;;2.58;1.60;;;10.00;99.90;;;;;;2077941;28;20079;-66
2024/02/14 02:29:26;;;;;;;16.67;2.53;;;10.00;99.90;;;;;;2078632;28;20037;-66
2024/02/14 02:30:27;;;;;;;1.98;1.50;;;10.00;99.90;;;;;;2076837;28;20026;-66
2024/02/14 02:31:28;;;;;;;1.80;1.70;;;10.00;99.90;;;;;;2078188;28;20056;-66
2024/02/14 02:32:28;;;;;;;4.35;1.88;;;10.00;99.90;;;;;;2076952;28;20497;-66
2024/02/14 02:33:28;;;;;;;2.55;1.92;;;10.00;99.90;;;;;;2076672;28;20033;-67
2024/02/14 02:34:29;;;;;;;3.22;1.92;;;10.00;99.90;;;;;;2075791;28;20026;-71
2024/02/14 02:35:30;;;;;;;3.45;1.90;;;10.00;99.90;;;;;;2077727;28;20038;-71
2024/02/14 02:36:30;;;;;;;7.10;1.67;;;10.00;99.90;;;;;;2076747;28;20021;-71
2024/02/14 02:37:31;;;;;;;2.67;1.67;;;10.00;99.90;;;;;;2076655;28;20128;-71
2024/02/14 02:38:32;;;;;;;2.40;1.70;;;10.00;99.90;;;;;;2076494;28;20041;-70
2024/02/14 02:39:33;;;;;;;2.42;1.70;;;10.00;99.90;;;;;;2076323;28;20029;-71
2024/02/14 02:40:33;;;;;;;4.57;1.95;;;10.00;99.90;;;;;;2076830;28;20026;-71
2024/02/14 02:41:34;;;;;;;3.70;1.70;;;10.00;99.90;;;;;;2076265;28;20039;-69
2024/02/14 02:42:35;;;;;;;2.90;2.28;;;10.10;99.90;;;;;;2078082;28;20370;-71
2024/02/14 02:43:35;;;;;;;2.72;1.60;;;10.00;99.90;;;;;;2078153;28;20079;-70
2024/02/14 02:44:38;;;;;;;2.58;1.70;;;10.10;99.90;;;;;;2078193;28;20034;-71
2024/02/14 02:45:39;;;;;;;3.25;1.50;;;10.10;99.90;;;;;;2075908;28;20557;-70
2024/02/14 02:46:40;;;;;;;2.97;1.83;;;10.10;99.90;;;;;;2076968;28;20033;-71
2024/02/14 02:47:40;;;;;;;1.80;1.63;;;10.10;99.90;;;;;;2076133;28;20021;-71
2024/02/14 02:48:41;;;;;;;6.05;2.13;;;10.10;99.90;;;;;;2077960;28;20040;-71
2024/02/14 02:49:44;;;;;;;5.45;2.13;;;10.10;99.90;;;;;;2077447;28;20033;-71
2024/02/14 02:50:44;;;;;;;4.28;2.08;;;10.10;99.90;;;;;;2067655;28;20022;-71
2024/02/14 02:51:45;;;;;;;2.72;2.03;;;10.10;99.90;;;;;;2066666;28;20051;-71
2024/02/14 02:52:45;;;;;;;3.50;1.70;;;10.10;99.90;;;;;;2076611;28;20030;-71
2024/02/14 02:53:47;;;;;;;4.53;2.55;;;10.10;99.90;;;;;;2077734;28;20025;-71
2024/02/14 02:54:47;;;;;;;3.85;1.80;;;10.10;99.90;;;;;;2076061;28;20148;-71
2024/02/14 02:55:51;;;;;;;3.17;1.85;;;10.10;99.90;;;;;;2075554;28;20615;-70
2024/02/14 02:56:51;;;;;;;4.72;2.05;;;10.10;99.90;;;;;;2076601;28;20030;-71
2024/02/14 02:57:52;;;;;;;3.20;1.77;;;10.10;99.90;;;;;;2076487;28;20072;-71
2024/02/14 02:58:55;;;;;;;3.90;1.88;;;10.10;99.90;;;;;;2077598;28;20079;-71
2024/02/14 02:59:55;;;;;;;4.97;1.85;;;10.10;99.90;;;;;;2075562;28;20036;-71
2024/02/14 03:00:57;;;;;;;3.40;1.70;;;10.10;99.90;;;;;;2076203;28;20030;-71
2024/02/14 03:01:58;;;;;;;5.40;1.70;;;10.10;99.90;;;;;;2076689;28;20042;-70
2024/02/14 03:02:59;;;;;;;2.00;1.40;;;10.10;99.90;;;;;;2075845;28;20040;-71
2024/02/14 03:04:00;;;;;;;2.60;1.42;;;10.20;99.90;;;;;;2073142;28;20391;-71
2024/02/14 03:05:03;;;;;;;3.20;1.70;;;10.20;99.90;;;;;;2077433;28;20061;-71
2024/02/14 03:06:04;;;;;;;5.45;2.15;;;10.20;99.90;;;;;;2075225;28;20143;-71
2024/02/14 03:07:06;;;;;;;3.35;1.60;;;10.20;99.90;;;;;;2077297;28;20083;-71
2024/02/14 03:08:08;;;;;;;2.67;1.70;;;10.20;99.90;;;;;;2076580;28;20489;-71
2024/02/14 03:09:08;;;;;;;2.45;1.55;;;10.20;99.90;;;;;;2076656;28;20068;-70
2024/02/14 03:10:09;;;;;;;3.70;1.67;;;10.20;99.90;;;;;;2076560;28;20033;-71
2024/02/14 03:11:09;;;;;;;3.38;1.50;;;10.20;99.90;;;;;;2074412;28;20140;-71
2024/02/14 03:12:10;;;;;;;2.67;1.73;;;10.20;99.90;;;;;;2075932;28;20048;-71
2024/02/14 03:13:14;;;;;;;2.45;1.60;;;10.20;99.90;;;;;;2077643;28;20092;-70
2024/02/14 03:14:14;;;;;;;1.88;1.55;;;10.20;99.90;;;;;;2076420;28;20025;-71
2024/02/14 03:15:15;;;;;;;2.58;1.35;;;10.20;99.90;;;;;;2076793;28;20387;-71
2024/02/14 03:16:17;;;;;;;3.22;1.65;;;10.30;99.90;;;;;;2076361;28;20045;-71
2024/02/14 03:17:17;;;;;;;2.55;1.67;;;10.30;99.90;;;;;;2075210;28;20140;-71
2024/02/14 03:18:18;;;;;;;2.63;1.52;;;10.30;99.90;;;;;;2075896;28;20026;-71
2024/02/14 03:19:19;;;;;;;3.30;1.50;;;10.30;99.90;;;;;;2074339;28;20033;-71
2024/02/14 03:20:19;;;;;;;2.13;1.90;;;10.30;99.90;;;;;;2075662;28;20017;-71
2024/02/14 03:21:20;;;;;;;6.25;1.85;;;10.30;99.90;;;;;;2077461;28;20026;-71
2024/02/14 03:22:20;;;;;;;1.85;1.35;;;10.30;99.90;;;;;;2077304;28;20056;-70
2024/02/14 03:23:22;;;;;;;3.33;1.75;;;10.30;99.90;;;;;;2075791;28;20029;-71
2024/02/14 03:24:26;;;;;;;1.48;1.38;;;10.30;99.90;;;;;;2076491;28;20028;-72
2024/02/14 03:25:26;;;;;;;1.90;1.80;;;10.30;99.90;;;;;;2075971;28;20034;-71
2024/02/14 03:26:27;;;;;;;3.55;1.60;;;10.30;99.90;;;;;;2075543;28;20494;-71
2024/02/14 03:27:27;;;;;;;3.00;1.60;;;10.30;99.90;;;;;;2073739;28;20343;-72
2024/02/14 03:28:28;;;;;;;3.38;1.65;;;10.30;99.90;;;;;;2074191;28;20033;-70
2024/02/14 03:29:29;;;;;;;2.25;1.60;;;10.30;99.90;;;;;;2076571;28;20425;-71
2024/02/14 03:30:29;;;;;;;3.25;1.63;;;10.30;99.90;;;;;;2074910;28;20437;-69
2024/02/14 03:31:30;;;;;;;3.13;1.77;;;10.30;99.90;;;;;;2076795;28;20034;-71
2024/02/14 03:32:31;;;;;;;1.80;1.63;;;10.30;99.90;;;;;;2075098;28;20049;-71
2024/02/14 03:33:31;;;;;;;3.20;1.95;;;10.40;99.90;;;;;;2074967;28;20032;-71
2024/02/14 03:34:38;;;;;;;2.83;1.88;;;10.40;99.90;;;;;;2076055;28;20022;-71
2024/02/14 03:35:38;;;;;;;3.17;1.50;;;10.40;99.90;;;;;;2075127;28;20444;-72
2024/02/14 03:36:39;;;;;;;3.35;1.60;;;10.30;99.90;;;;;;2074918;28;20018;-71
2024/02/14 03:37:47;;;;;;;3.22;1.60;;;10.40;99.90;;;;;;2076015;28;20380;-70
2024/02/14 03:38:47;;;;;;;4.05;1.55;;;10.30;99.90;;;;;;2075195;28;20042;-71
2024/02/14 03:39:48;;;;;;;2.05;1.60;;;10.30;99.90;;;;;;2077062;28;20040;-71
2024/02/14 03:40:48;;;;;;;1.85;1.48;;;10.30;99.90;;;;;;2075131;28;20041;-71
2024/02/14 03:41:49;;;;;;;2.58;1.55;;;10.40;99.90;;;;;;2076012;28;20555;-72
2024/02/14 03:42:49;;;;;;;1.67;1.58;;;10.40;99.90;;;;;;2074832;28;20069;-71
2024/02/14 03:43:52;;;;;;;3.58;1.67;;;10.40;99.90;;;;;;2074782;28;20034;-72
2024/02/14 03:45:00;;;;;;;3.63;1.60;;;10.40;99.90;;;;;;2075072;28;20033;-68
2024/02/14 03:46:00;;;;;;;1.92;1.40;;;10.40;99.90;;;;;;2074432;28;20524;-66
2024/02/14 03:47:01;;;;;;;2.92;1.70;;;10.40;99.90;;;;;;2075929;28;20490;-67
2024/02/14 03:48:02;;;;;;;1.95;1.55;;;10.40;99.90;;;;;;2077086;28;20087;-67
2024/02/14 03:49:02;;;;;;;2.63;1.48;;;10.40;99.90;;;;;;2075565;28;20386;-66
2024/02/14 03:50:04;;;;;;;1.95;1.52;;;10.40;99.90;;;;;;2075209;28;20022;-66
2024/02/14 03:51:05;;;;;;;2.00;1.83;;;10.40;99.90;;;;;;2074970;28;20049;-67
2024/02/14 03:52:09;;;;;;;2.03;1.67;;;10.40;99.90;;;;;;2076898;28;20026;-66
2024/02/14 03:53:11;;;;;;;2.45;1.50;;;10.40;99.90;;;;;;2074422;28;20029;-66
2024/02/14 03:54:11;;;;;;;2.35;1.58;;;10.40;99.90;;;;;;2069800;28;20452;-67
2024/02/14 03:55:13;;;;;;;2.85;1.80;;;10.40;99.90;;;;;;2064360;28;20038;-66
2024/02/14 03:56:16;;;;;;;1.65;1.40;;;10.40;99.90;;;;;;2077082;28;20033;-67
2024/02/14 03:57:17;;;;;;;2.50;1.50;;;10.40;99.90;;;;;;2076453;28;20033;-67
2024/02/14 03:58:22;;;;;;;2.67;1.55;;;10.40;99.90;;;;;;2074418;28;20021;-68
2024/02/14 03:59:24;;;;;;;1.88;1.73;;;10.40;99.90;;;;;;2077585;28;20477;-67
2024/02/14 04:00:24;;;;;;;1.75;1.50;;;10.40;99.90;;;;;;2074207;28;20118;-66
2024/02/14 04:01:25;;;;;;;1.92;1.70;;;10.40;99.90;;;;;;2075741;28;20026;-66
2024/02/14 04:02:28;;;;;;;1.98;1.80;;;10.40;99.90;;;;;;2074163;28;20096;-66
2024/02/14 04:03:31;;;;;;;3.15;1.88;;;10.40;99.90;;;;;;2075360;28;20030;-67
2024/02/14 04:04:33;;;;;;;2.80;1.63;;;10.40;99.90;;;;;;2075485;28;20050;-67
2024/02/14 04:05:34;;;;;;;1.95;1.52;;;10.40;99.90;;;;;;2073403;28;20467;-66
2024/02/14 04:06:34;;;;;;;2.13;1.70;;;10.40;99.90;;;;;;2074658;28;20637;-66
2024/02/14 04:07:37;;;;;;;1.80;1.45;;;10.40;99.90;;;;;;2076048;28;20018;-67
2024/02/14 04:08:37;;;;;;;2.75;1.50;;;10.40;99.90;;;;;;2073689;28;20451;-66
2024/02/14 04:09:38;;;;;;;3.20;2.05;;;10.40;99.90;;;;;;2077265;28;20368;-66
2024/02/14 04:10:39;;;;;;;2.20;2.00;;;10.40;99.90;;;;;;2074522;28;20026;-65
2024/02/14 04:11:40;;;;;;;3.03;1.95;;;10.40;99.90;;;;;;2074769;28;20026;-67
2024/02/14 04:12:41;;;;;;;3.45;1.80;;;10.40;99.90;;;;;;2075643;28;20048;-66
2024/02/14 04:13:41;;;;;;;2.05;1.85;;;10.40;99.90;;;;;;2073562;28;20113;-66
2024/02/14 04:14:42;;;;;;;2.88;1.80;;;10.40;99.90;;;;;;2075520;28;20509;-66
2024/02/14 04:15:42;;;;;;;1.80;1.60;;;10.40;99.90;;;;;;2075735;28;20049;-66
2024/02/14 04:16:43;;;;;;;2.90;1.80;;;10.40;99.90;;;;;;2075765;28;20030;-66
2024/02/14 04:17:43;;;;;;;2.33;1.60;;;10.40;99.90;;;;;;2075526;28;20072;-67
2024/02/14 04:18:44;;;;;;;3.35;1.80;;;10.40;99.90;;;;;;2073325;28;20056;-66
2024/02/14 04:19:44;;;;;;;2.35;1.95;;;10.40;99.90;;;;;;2077042;28;20053;-67
2024/02/14 04:20:45;;;;;;;2.33;1.98;;;10.40;99.90;;;;;;2074960;28;20029;-67
2024/02/14 04:21:46;;;;;;;2.28;1.85;;;10.40;99.90;;;;;;2074116;28;20022;-66
2024/02/14 04:22:46;;;;;;;4.57;1.70;;;10.40;99.90;;;;;;2074962;28;20398;-67
2024/02/14 04:23:47;;;;;;;2.00;1.80;;;10.40;99.90;;;;;;2067188;28;20033;-66
2024/02/14 04:24:50;;;;;;;1.67;1.52;;;10.40;99.90;;;;;;2069309;28;20042;-67
2024/02/14 04:25:50;;;;;;;2.00;1.60;;;10.40;99.90;;;;;;2074989;28;20083;-67
2024/02/14 04:26:54;;;;;;;4.32;2.50;;;10.40;99.90;;;;;;2075626;28;20088;-67
2024/02/14 04:27:55;;;;;;;3.00;1.90;;;10.40;99.90;;;;;;2076384;28;20046;-71
2024/02/14 04:28:57;;;;;;;2.13;1.90;;;10.40;99.90;;;;;;2076321;28;20026;-71
2024/02/14 04:29:58;;;;;;;2.55;2.08;;;10.40;99.90;;;;;;2069391;28;20061;-70
2024/02/14 04:30:58;;;;;;;2.00;1.77;;;10.40;99.90;;;;;;2065305;28;20133;-71
2024/02/14 04:31:59;;;;;;;2.08;1.90;;;10.40;99.90;;;;;;2075275;28;20037;-71
2024/02/14 04:33:00;;;;;;;3.15;2.30;;;10.50;99.90;;;;;;2073769;28;20475;-70
2024/02/14 04:34:01;;;;;;;2.75;2.38;;;10.50;99.90;;;;;;2075127;28;20029;-71
2024/02/14 04:35:02;;;;;;;2.25;1.90;;;10.50;99.90;;;;;;2075819;28;20025;-71
2024/02/14 04:36:03;;;;;;;2.63;2.00;;;10.40;99.90;;;;;;2076980;28;20076;-66
2024/02/14 04:37:09;;;;;;;3.58;2.38;;;10.50;99.90;;;;;;2076111;28;20146;-66
2024/02/14 04:38:10;;;;;;;3.17;2.35;;;10.50;99.90;;;;;;2074952;28;20018;-66
2024/02/14 04:39:10;;;;;;;3.50;2.42;;;10.50;99.90;;;;;;2074255;28;20084;-66
2024/02/14 04:40:12;;;;;;;2.40;2.17;;;10.50;99.90;;;;;;2073193;28;20483;-67
2024/02/14 04:41:14;;;;;;;5.13;2.75;;;10.50;99.90;;;;;;2075255;28;20032;-66
2024/02/14 04:42:14;;;;;;;2.30;2.10;;;10.50;99.90;;;;;;2078052;28;20033;-66
2024/02/14 04:43:16;;;;;;;3.60;2.60;;;10.50;99.90;;;;;;2069634;28;20030;-66
2024/02/14 04:44:17;;;;;;;2.55;2.22;;;10.50;99.90;;;;;;2071158;28;20026;-66
2024/02/14 04:45:18;;;;;;;2.90;2.20;;;10.50;99.90;;;;;;2073047;28;20029;-66
2024/02/14 04:46:18;;;;;;;2.55;2.28;;;10.60;99.90;;;;;;2076155;28;20029;-66
2024/02/14 04:47:20;;;;;;;3.05;2.40;;;10.50;99.90;;;;;;2075234;28;20025;-67
2024/02/14 04:48:21;;;;;;;2.35;2.00;;;10.60;99.90;;;;;;2074381;28;20689;-66
2024/02/14 04:49:21;;;;;;;2.78;2.15;;;10.60;99.90;;;;;;2076012;28;20022;-66
2024/02/14 04:50:22;;;;;;;3.17;2.42;;;10.60;99.90;;;;;;2075707;28;20172;-66
2024/02/14 04:51:23;;;;;;;3.05;2.42;;;10.60;99.90;;;;;;2074702;28;20486;-66
2024/02/14 04:52:23;;;;;;;4.68;2.50;;;10.60;99.90;;;;;;2075064;28;20026;-66
2024/02/14 04:53:24;;;;;;;3.95;2.50;;;10.60;99.90;;;;;;2073455;28;20038;-66
2024/02/14 04:54:25;;;;;;;5.07;2.35;;;10.60;99.90;;;;;;2077009;28;20398;-71
2024/02/14 04:55:26;;;;;;;5.85;3.33;;;10.60;99.90;;;;;;2073154;28;20096;-71
2024/02/14 04:56:27;;;;;;;3.58;2.33;;;10.60;99.90;;;;;;2075618;28;20109;-71
2024/02/14 04:57:27;;;;;;;3.30;2.30;;;10.60;99.90;;;;;;2075196;28;20041;-71
2024/02/14 04:58:28;;;;;;;5.18;2.47;;;10.60;99.90;;;;;;2068258;28;20029;-71
2024/02/14 04:59:28;;;;;;;5.63;2.38;;;10.60;99.90;;;;;;2069479;28;20054;-71
2024/02/14 05:00:29;;;;;;;3.50;2.45;;;10.60;99.90;;;;;;2074448;28;20033;-69
2024/02/14 05:01:29;;;;;;;2.40;2.10;;;10.60;99.90;;;;;;2075336;28;20668;-70
2024/02/14 05:02:30;;;;;;;4.43;2.15;;;10.60;99.90;;;;;;2076052;28;20052;-70
2024/02/14 05:03:31;;;;;;;3.08;2.03;;;10.70;99.90;;;;;;2073404;28;20030;-70
2024/02/14 05:04:32;;;;;;;3.00;2.33;;;10.70;99.90;;;;;;2077504;28;20053;-71
2024/02/14 05:05:33;;;;;;;3.25;2.35;;;10.60;99.90;;;;;;2073518;28;20025;-71
2024/02/14 05:06:34;;;;;;;4.50;2.47;;;10.70;99.90;;;;;;2074969;28;20112;-71
2024/02/14 05:07:34;;;;;;;3.10;2.05;;;10.70;99.90;;;;;;2079259;28;20038;-70
2024/02/14 05:08:35;;;;;;;2.72;2.13;;;10.70;99.90;;;;;;2076511;28;20525;-71
2024/02/14 05:09:35;;;;;;;2.97;2.58;;;10.70;99.90;;;;;;2076436;28;20395;-71
2024/02/14 05:10:36;;;;;;;2.10;1.90;;;10.70;99.90;;;;;;2076563;28;20061;-71
2024/02/14 05:11:37;;;;;;;2.20;2.00;;;10.70;99.90;;;;;;2074789;28;20021;-71
2024/02/14 05:12:37;;;;;;;3.55;2.03;;;10.70;99.90;;;;;;2077378;28;20018;-70
2024/02/14 05:13:38;;;;;;;2.33;2.13;;;10.70;99.90;;;;;;2076215;28;20139;-69
2024/02/14 05:14:40;;;;;;;2.03;1.88;;;10.70;99.90;;;;;;2074962;28;20140;-71
2024/02/14 05:15:41;;;;;;;2.72;2.08;;;10.70;99.90;;;;;;2075392;28;20456;-71
2024/02/14 05:16:42;;;;;;;5.15;2.10;;;10.70;99.90;;;;;;2074612;28;20054;-71
2024/02/14 05:17:45;;;;;;;4.50;2.30;;;10.70;99.90;;;;;;2078603;28;20039;-71
2024/02/14 05:18:47;;;;;;;6.18;2.60;;;10.80;99.90;;;;;;2078182;28;20424;-71